Time;durP1;ratioP1;P1;durP2;ratioP2;P2;SDS_P1;SDS_P2;PMS_P1;PMS_P2;Temp;Humidity;BMP_temperature;BMP_pressure;BME280_temperature;BME280_humidity;BME280_pressure;Samples;Min_cycle;Max_cycle;Signal;HPM_P1;HPM_P2
2022/03/03 00:02:10;;;;;;;;;80.50;61.75;6.50;47.10;;;;;;4918404;29;8939;-66
2022/03/03 00:04:36;;;;;;;;;83.50;66.25;6.30;47.70;;;;;;4901554;29;8827;-65
2022/03/03 00:07:02;;;;;;;;;80.50;64.00;6.50;47.20;;;;;;4918283;29;8823;-65
2022/03/03 00:09:28;;;;;;;;;83.00;63.00;6.30;47.70;;;;;;4917969;29;8858;-65
2022/03/03 00:11:54;;;;;;;;;82.00;64.75;6.10;48.10;;;;;;4918103;29;8819;-64
2022/03/03 00:14:20;;;;;;;;;76.00;62.50;6.30;48.20;;;;;;4917015;29;8800;-65
2022/03/03 00:16:45;;;;;;;;;80.00;65.00;6.30;47.20;;;;;;4918305;29;8787;-65
2022/03/03 00:19:11;;;;;;;;;75.25;60.25;6.40;47.40;;;;;;4918014;29;8794;-66
2022/03/03 00:21:37;;;;;;;;;82.00;63.25;6.50;47.60;;;;;;4918160;29;8961;-65
2022/03/03 00:24:03;;;;;;;;;75.00;60.00;6.60;47.00;;;;;;4918254;29;8767;-65
2022/03/03 00:26:29;;;;;;;;;76.75;60.00;6.80;46.20;;;;;;4917925;29;8842;-66
2022/03/03 00:28:55;;;;;;;;;78.00;61.00;6.40;46.90;;;;;;4917900;29;8780;-66
2022/03/03 00:31:20;;;;;;;;;78.00;60.50;6.20;47.40;;;;;;4918158;29;8783;-66
2022/03/03 00:33:46;;;;;;;;;76.75;60.75;6.20;47.50;;;;;;4918058;29;8808;-65
2022/03/03 00:36:12;;;;;;;;;76.25;61.00;5.90;47.70;;;;;;4917863;29;8837;-65
2022/03/03 00:38:38;;;;;;;;;73.50;61.00;6.00;47.80;;;;;;4917789;29;8779;-65
2022/03/03 00:41:04;;;;;;;;;74.50;60.25;6.20;47.30;;;;;;4917546;29;8839;-65
2022/03/03 00:43:29;;;;;;;;;74.75;58.25;6.50;46.40;;;;;;4917850;29;8787;-66
2022/03/03 00:45:55;;;;;;;;;73.00;60.25;6.40;46.20;;;;;;4917983;29;8854;-66
2022/03/03 00:48:21;;;;;;;;;75.75;58.75;6.30;47.00;;;;;;4918059;29;8791;-66
2022/03/03 00:50:48;;;;;;;;;77.75;60.75;6.20;47.10;;;;;;4917965;29;8800;-65
2022/03/03 00:53:14;;;;;;;;;75.50;60.00;6.10;47.30;;;;;;4917948;29;8834;-66
2022/03/03 00:55:39;;;;;;;;;71.75;58.00;5.90;47.60;;;;;;4917804;29;8791;-66
2022/03/03 00:58:05;;;;;;;;;81.00;62.75;5.80;48.10;;;;;;4917877;29;8914;-64
2022/03/03 01:00:31;;;;;;;;;80.25;62.25;5.70;48.40;;;;;;4917668;29;8799;-68
2022/03/03 01:02:57;;;;;;;;;77.75;61.75;5.90;48.00;;;;;;4917678;29;8823;-66
2022/03/03 01:05:23;;;;;;;;;77.50;62.25;6.10;47.70;;;;;;4917538;29;8763;-66
2022/03/03 01:07:48;;;;;;;;;73.25;59.00;6.40;46.70;;;;;;4917454;29;8803;-65
2022/03/03 01:10:14;;;;;;;;;76.25;62.25;6.70;45.60;;;;;;4918865;29;8920;-65
2022/03/03 01:12:41;;;;;;;;;75.75;61.00;6.60;45.60;;;;;;4921197;29;8772;-65
2022/03/03 01:15:09;;;;;;;;;73.00;59.00;5.90;47.30;;;;;;4921208;29;8791;-65
2022/03/03 01:17:35;;;;;;;;;64.75;51.25;6.10;47.10;;;;;;4921156;29;8787;-64
2022/03/03 01:20:02;;;;;;;;;59.25;50.25;5.90;47.40;;;;;;4921316;29;9486;-64
2022/03/03 01:22:28;;;;;;;;;77.50;58.75;5.80;47.80;;;;;;4921032;29;8775;-65
2022/03/03 01:24:54;;;;;;;;;74.75;60.00;5.80;48.00;;;;;;4921271;29;8812;-64
2022/03/03 01:27:19;;;;;;;;;74.00;61.25;5.90;48.20;;;;;;4920835;29;8815;-64
2022/03/03 01:29:45;;;;;;;;;69.25;56.75;6.00;48.10;;;;;;4920911;29;8787;-66
2022/03/03 01:32:11;;;;;;;;;75.25;59.00;6.00;47.80;;;;;;4920846;29;8791;-65
2022/03/03 01:34:38;;;;;;;;;69.50;55.50;6.00;47.80;;;;;;4921133;29;8841;-65
2022/03/03 01:37:04;;;;;;;;;60.00;49.00;5.50;48.50;;;;;;4921081;29;8799;-65
2022/03/03 01:39:30;;;;;;;;;69.00;56.75;5.10;49.90;;;;;;4904024;29;8818;-65
2022/03/03 01:41:57;;;;;;;;;66.50;55.75;5.30;49.60;;;;;;4920882;29;8882;-65
2022/03/03 01:44:23;;;;;;;;;69.25;55.25;5.20;49.70;;;;;;4920605;29;8946;-65
2022/03/03 01:46:55;;;;;;;;;76.25;61.00;5.00;50.80;;;;;;4920527;29;8858;-65
2022/03/03 01:49:22;;;;;;;;;75.25;60.25;4.60;51.80;;;;;;4920532;29;8791;-65
2022/03/03 01:51:48;;;;;;;;;72.75;59.00;4.30;53.40;;;;;;4920661;29;8881;-65
2022/03/03 01:54:14;;;;;;;;;76.75;62.00;4.40;53.60;;;;;;4920136;29;8922;-65
2022/03/03 01:56:41;;;;;;;;;71.50;57.25;4.70;53.00;;;;;;4920497;29;8779;-65
2022/03/03 01:59:08;;;;;;;;;78.00;61.25;4.70;52.10;;;;;;4920380;29;8801;-65
2022/03/03 02:01:36;;;;;;;;;75.50;59.00;4.40;52.90;;;;;;4920571;29;8791;-64
2022/03/03 02:04:06;;;;;;;;;76.50;61.25;4.30;53.80;;;;;;4920793;29;8909;-65
2022/03/03 02:06:32;;;;;;;;;76.50;59.75;4.50;54.10;;;;;;4920226;29;8841;-65
2022/03/03 02:08:58;;;;;;;;;70.50;56.00;4.50;54.20;;;;;;4920125;29;8815;-65
2022/03/03 02:11:24;;;;;;;;;71.25;58.25;4.30;54.30;;;;;;4920544;29;8775;-65
2022/03/03 02:13:50;;;;;;;;;76.50;62.25;4.50;54.50;;;;;;4920246;29;8799;-65
2022/03/03 02:16:16;;;;;;;;;77.50;62.00;4.20;54.90;;;;;;4920145;29;8787;-64
2022/03/03 02:18:42;;;;;;;;;71.75;59.00;4.00;55.70;;;;;;4920253;29;8795;-65
2022/03/03 02:21:13;;;;;;;;;82.50;64.25;4.50;55.00;;;;;;4919739;29;8783;-66
2022/03/03 02:23:40;;;;;;;;;78.25;63.75;5.10;53.20;;;;;;4919867;29;9426;-66
2022/03/03 02:26:28;;;;;;;;;76.75;58.25;5.40;51.90;;;;;;4919873;29;8917;-65
2022/03/03 02:28:54;;;;;;;;;76.50;60.00;4.90;52.40;;;;;;4919850;29;8806;-67
2022/03/03 02:31:20;;;;;;;;;79.50;65.50;4.80;53.20;;;;;;4919787;29;8806;-64
2022/03/03 02:33:46;;;;;;;;;79.00;62.00;4.90;53.80;;;;;;4919624;29;8835;-65
2022/03/03 02:36:16;;;;;;;;;76.00;62.25;5.00;53.40;;;;;;4919972;29;9442;-66
2022/03/03 02:38:42;;;;;;;;;80.00;63.00;5.10;52.50;;;;;;4919618;29;8803;-64
2022/03/03 02:41:08;;;;;;;;;79.25;63.25;5.20;52.90;;;;;;4919626;29;8787;-66
2022/03/03 02:43:34;;;;;;;;;79.75;64.00;5.10;52.30;;;;;;4919573;29;8811;-66
2022/03/03 02:46:01;;;;;;;;;84.00;66.25;5.00;52.40;;;;;;4919713;29;8930;-66
2022/03/03 02:48:27;;;;;;;;;74.50;58.00;4.90;52.90;;;;;;4919711;29;8772;-66
2022/03/03 02:50:53;;;;;;;;;84.00;65.00;5.10;52.80;;;;;;4919484;29;8787;-65
2022/03/03 02:53:18;;;;;;;;;79.00;64.75;5.20;51.50;;;;;;4919647;29;8787;-68
2022/03/03 02:55:44;;;;;;;;;68.25;56.75;5.30;51.20;;;;;;4919551;29;9486;-65
2022/03/03 02:58:11;;;;;;;;;80.00;62.75;5.30;51.20;;;;;;4919570;29;8866;-66
2022/03/03 03:00:43;;;;;;;;;84.00;63.50;5.50;51.20;;;;;;4919263;29;8783;-66
2022/03/03 03:03:09;;;;;;;;;79.00;62.25;5.80;50.00;;;;;;4919192;29;8780;-65
2022/03/03 03:05:36;;;;;;;;;68.50;54.50;5.70;49.70;;;;;;4919342;29;8879;-65
2022/03/03 03:08:02;;;;;;;;;81.75;61.00;5.60;49.80;;;;;;4918921;29;8834;-65
2022/03/03 03:10:28;;;;;;;;;78.25;61.25;5.00;51.10;;;;;;4919380;29;8767;-66
2022/03/03 03:12:54;;;;;;;;;70.25;55.25;4.80;51.90;;;;;;4919278;29;8798;-65
2022/03/03 03:15:19;;;;;;;;;76.50;59.00;4.90;52.00;;;;;;4918974;29;8946;-65
2022/03/03 03:17:45;;;;;;;;;70.75;58.00;5.20;51.00;;;;;;4919205;29;9669;-65
2022/03/03 03:20:12;;;;;;;;;73.25;59.75;5.50;50.40;;;;;;4918939;29;8898;-67
2022/03/03 03:22:38;;;;;;;;;72.75;60.00;5.20;50.50;;;;;;4919125;29;8795;-65
2022/03/03 03:25:07;;;;;;;;;69.00;58.00;4.90;51.20;;;;;;4919140;29;8885;-66
2022/03/03 03:27:34;;;;;;;;;76.50;61.25;5.10;51.50;;;;;;4918997;29;8841;-66
2022/03/03 03:30:00;;;;;;;;;71.75;56.50;5.30;50.40;;;;;;4918913;29;8779;-65
2022/03/03 03:32:26;;;;;;;;;73.75;56.50;5.20;50.70;;;;;;4918943;29;8779;-66
2022/03/03 03:34:52;;;;;;;;;74.50;59.00;5.20;50.80;;;;;;4918867;29;8811;-64
2022/03/03 03:37:17;;;;;;;;;61.25;52.25;5.10;51.10;;;;;;4918626;29;8894;-67
2022/03/03 03:39:43;;;;;;;;;71.75;59.50;5.10;50.60;;;;;;4918317;29;8791;-64
2022/03/03 03:42:09;;;;;;;;;72.25;59.00;5.00;51.30;;;;;;4918556;29;8795;-67
2022/03/03 03:44:35;;;;;;;;;63.00;50.75;5.50;50.30;;;;;;4918391;29;8819;-66
2022/03/03 03:47:02;;;;;;;;;68.50;58.25;5.70;49.30;;;;;;4918670;29;8815;-65
2022/03/03 03:49:28;;;;;;;;;69.25;57.25;5.30;49.90;;;;;;4918435;29;8799;-66
2022/03/03 03:51:54;;;;;;;;;65.00;55.00;5.60;49.50;;;;;;4918433;29;8784;-66
2022/03/03 03:54:19;;;;;;;;;70.50;56.25;5.80;48.50;;;;;;4918286;29;8775;-66
2022/03/03 03:56:45;;;;;;;;;69.00;56.75;5.40;49.00;;;;;;4918568;29;8791;-65
2022/03/03 03:59:11;;;;;;;;;67.00;55.00;5.10;49.80;;;;;;4918637;29;8775;-65
2022/03/03 04:01:37;;;;;;;;;75.75;58.50;5.30;50.00;;;;;;4918321;29;9598;-66
2022/03/03 04:04:03;;;;;;;;;72.25;55.25;5.20;49.70;;;;;;4918455;29;8916;-65
2022/03/03 04:06:29;;;;;;;;;74.75;58.25;5.50;49.80;;;;;;4918095;29;9470;-67
2022/03/03 04:08:55;;;;;;;;;71.50;56.75;5.30;49.50;;;;;;4917958;29;8857;-66
2022/03/03 04:11:20;;;;;;;;;65.00;51.00;5.20;49.50;;;;;;4918222;29;8775;-66
2022/03/03 04:13:46;;;;;;;;;61.00;50.75;5.20;50.10;;;;;;4918294;29;8863;-68
2022/03/03 04:16:12;;;;;;;;;70.75;57.25;5.30;50.20;;;;;;4918347;29;8791;-66
2022/03/03 04:18:38;;;;;;;;;62.25;53.00;5.20;50.40;;;;;;4918312;29;8787;-65
2022/03/03 04:21:05;;;;;;;;;65.75;53.50;5.30;50.10;;;;;;4918033;29;8811;-64
2022/03/03 04:23:31;;;;;;;;;70.50;57.25;5.20;49.80;;;;;;4918014;29;8874;-64
2022/03/03 04:25:57;;;;;;;;;55.50;48.00;5.20;50.80;;;;;;4917879;29;8823;-64
2022/03/03 04:28:22;;;;;;;;;66.75;55.75;5.00;50.90;;;;;;4918037;29;8787;-64
2022/03/03 04:30:48;;;;;;;;;67.50;54.00;5.10;50.80;;;;;;4918117;29;8795;-65
2022/03/03 04:33:14;;;;;;;;;72.75;58.00;5.20;51.00;;;;;;4918196;29;8803;-65
2022/03/03 04:35:40;;;;;;;;;74.75;58.00;5.10;50.50;;;;;;4917889;29;8854;-65
2022/03/03 04:38:06;;;;;;;;;69.00;57.00;5.40;50.50;;;;;;4917822;29;8779;-64
2022/03/03 04:40:32;;;;;;;;;66.50;56.25;5.50;49.70;;;;;;4917125;29;8822;-65
2022/03/03 04:42:58;;;;;;;;;57.50;47.00;5.50;49.60;;;;;;4918048;29;8807;-64
2022/03/03 04:45:25;;;;;;;;;75.50;56.00;5.20;49.70;;;;;;4919751;29;8866;-65
2022/03/03 04:47:51;;;;;;;;;68.25;55.25;5.00;50.20;;;;;;4921670;29;8787;-65
2022/03/03 04:50:17;;;;;;;;;68.00;55.75;4.90;50.90;;;;;;4921913;29;8783;-65
2022/03/03 04:52:43;;;;;;;;;69.25;55.50;5.00;51.20;;;;;;4921569;29;9507;-65
2022/03/03 04:55:09;;;;;;;;;71.25;57.25;5.10;50.50;;;;;;4921543;29;8771;-65
2022/03/03 04:57:35;;;;;;;;;66.25;52.00;5.10;50.20;;;;;;4921515;29;8795;-65
2022/03/03 05:00:02;;;;;;;;;63.75;53.75;5.30;49.90;;;;;;4921960;29;8807;-64
2022/03/03 05:02:28;;;;;;;;;69.25;55.25;5.50;48.80;;;;;;4921654;29;8779;-65
2022/03/03 05:04:53;;;;;;;;;68.75;56.75;5.20;49.50;;;;;;4921554;29;9812;-65
2022/03/03 05:07:19;;;;;;;;;72.00;59.50;5.10;50.50;;;;;;4921250;29;8795;-65
2022/03/03 05:09:45;;;;;;;;;43.25;38.50;5.50;49.40;;;;;;4921608;29;8883;-65
2022/03/03 05:12:11;;;;;;;;;74.25;58.00;5.90;48.60;;;;;;4921475;29;8772;-65
2022/03/03 05:14:37;;;;;;;;;62.25;51.75;5.60;48.60;;;;;;4921571;29;9486;-65
2022/03/03 05:17:03;;;;;;;;;71.00;58.00;5.80;48.30;;;;;;4921391;29;8806;-65
2022/03/03 05:19:29;;;;;;;;;69.75;56.25;6.20;47.30;;;;;;4921380;29;8786;-65
2022/03/03 05:21:54;;;;;;;;;69.50;57.25;6.20;47.00;;;;;;4921031;29;9461;-65
2022/03/03 05:24:20;;;;;;;;;68.50;55.75;6.10;47.60;;;;;;4921016;29;8821;-65
2022/03/03 05:26:46;;;;;;;;;74.50;58.50;6.00;47.80;;;;;;4920938;29;8926;-64
2022/03/03 05:29:12;;;;;;;;;69.25;58.00;5.80;47.40;;;;;;4920956;29;8914;-65
2022/03/03 05:31:37;;;;;;;;;66.25;54.25;5.50;48.70;;;;;;4920780;29;8799;-65
2022/03/03 05:34:03;;;;;;;;;65.50;55.00;5.50;48.70;;;;;;4920846;29;8870;-65
2022/03/03 05:36:30;;;;;;;;;76.25;60.75;5.60;48.60;;;;;;4921123;29;8772;-65
2022/03/03 05:38:57;;;;;;;;;72.50;59.25;5.70;49.00;;;;;;4920346;29;8783;-65
2022/03/03 05:41:24;;;;;;;;;76.00;60.50;5.80;48.60;;;;;;4918606;29;8814;-65
2022/03/03 05:43:50;;;;;;;;;65.25;54.75;6.00;48.00;;;;;;4919601;29;8894;-65
2022/03/03 05:46:16;;;;;;;;;73.25;60.50;5.80;48.00;;;;;;4920373;29;8898;-64
2022/03/03 05:48:42;;;;;;;;;70.75;57.75;5.60;48.80;;;;;;4918304;29;8767;-64
2022/03/03 05:51:10;;;;;;;;;63.00;53.25;5.40;48.80;;;;;;4919182;29;8762;-64
2022/03/03 05:53:35;;;;;;;;;70.00;56.50;5.50;49.40;;;;;;4919992;29;8779;-65
2022/03/03 05:56:07;;;;;;;;;74.25;60.50;5.70;48.60;;;;;;4919054;29;8881;-65
2022/03/03 05:58:44;;;;;;;;;79.50;62.25;5.90;47.70;;;;;;4912703;29;8793;-65
2022/03/03 06:01:11;;;;;;;;;80.50;61.50;6.10;46.90;;;;;;4918150;29;8814;-69
2022/03/03 06:03:37;;;;;;;;;78.75;63.75;6.00;46.90;;;;;;4920354;29;8975;-69
2022/03/03 06:06:25;;;;;;;;;79.25;62.00;6.30;46.30;;;;;;4920427;29;8825;-71
2022/03/03 06:09:02;;;;;;;;;78.75;63.00;6.00;46.60;;;;;;4920129;29;8807;-66
2022/03/03 06:11:29;;;;;;;;;85.00;66.75;5.60;47.60;;;;;;4920331;29;8805;-63
2022/03/03 06:14:07;;;;;;;;;90.50;68.00;5.50;48.20;;;;;;4920152;29;8829;-66
2022/03/03 06:16:35;;;;;;;;;78.25;60.50;5.60;48.30;;;;;;4920136;29;8807;-66
2022/03/03 06:19:02;;;;;;;;;31.00;23.50;5.90;47.30;;;;;;4920065;29;8850;-66
2022/03/03 06:21:29;;;;;;;;;81.50;64.75;5.90;47.00;;;;;;4920222;29;8857;-67
2022/03/03 06:23:56;;;;;;;;;84.50;65.50;5.90;47.20;;;;;;4919963;29;8818;-67
2022/03/03 06:26:22;;;;;;;;;78.00;63.00;5.70;47.70;;;;;;4914899;29;8836;-67
2022/03/03 06:28:48;;;;;;;;;82.25;63.75;5.50;48.60;;;;;;4919885;29;8791;-67
2022/03/03 06:31:15;;;;;;;;;77.25;61.25;5.40;48.30;;;;;;4919830;29;8787;-66
2022/03/03 06:33:41;;;;;;;;;72.75;59.75;5.60;48.20;;;;;;4919965;29;8806;-67
2022/03/03 06:36:08;;;;;;;;;78.00;60.50;5.60;47.70;;;;;;4919960;29;8795;-67
2022/03/03 06:38:34;;;;;;;;;73.25;60.00;5.60;47.90;;;;;;4919649;29;8772;-68
2022/03/03 06:41:02;;;;;;;;;70.75;59.00;5.80;48.00;;;;;;4919782;29;8775;-67
2022/03/03 06:43:29;;;;;;;;;74.00;59.25;5.60;48.00;;;;;;4919557;29;8787;-67
2022/03/03 06:45:58;;;;;;;;;75.00;59.50;5.50;48.50;;;;;;4919544;29;9426;-66
2022/03/03 06:48:24;;;;;;;;;64.75;53.50;5.50;47.80;;;;;;4919552;29;8771;-68
2022/03/03 06:50:52;;;;;;;;;68.75;54.25;5.70;47.80;;;;;;4919539;29;8783;-67
2022/03/03 06:53:29;;;;;;;;;79.00;62.25;5.60;47.70;;;;;;4919730;29;9382;-66
2022/03/03 06:56:06;;;;;;;;;73.50;59.25;5.70;48.00;;;;;;4919460;29;8807;-66
2022/03/03 06:58:33;;;;;;;;;81.25;63.50;5.80;47.60;;;;;;4919452;29;8784;-67
2022/03/03 07:01:09;;;;;;;;;79.50;62.00;5.70;47.40;;;;;;4919383;29;8901;-66
2022/03/03 07:03:35;;;;;;;;;75.00;57.50;5.90;47.40;;;;;;4919279;29;8826;-67
2022/03/03 07:06:03;;;;;;;;;74.75;58.00;5.90;46.50;;;;;;4919184;29;8830;-66
2022/03/03 07:08:32;;;;;;;;;70.25;57.00;5.90;47.20;;;;;;4918841;29;9570;-68
2022/03/03 07:10:58;;;;;;;;;73.25;60.00;5.80;46.90;;;;;;4919073;29;8795;-67
2022/03/03 07:13:24;;;;;;;;;69.25;54.25;6.10;46.00;;;;;;4919176;29;8772;-67
2022/03/03 07:15:55;;;;;;;;;75.75;62.00;5.90;45.80;;;;;;4919252;29;8860;-67
2022/03/03 07:18:28;;;;;;;;;73.00;60.00;5.80;46.20;;;;;;4919051;29;8759;-68
2022/03/03 07:21:02;;;;;;;;;71.00;57.50;5.70;46.00;;;;;;4903217;29;8850;-67
2022/03/03 07:23:32;;;;;;;;;65.50;52.25;5.80;45.70;;;;;;4900042;29;8815;-67
2022/03/03 07:26:00;;;;;;;;;71.50;58.75;5.90;46.30;;;;;;4910511;29;8811;-67
2022/03/03 07:28:28;;;;;;;;;68.00;56.50;6.10;46.00;;;;;;4918836;29;8783;-70
2022/03/03 07:30:55;;;;;;;;;63.25;49.00;6.40;45.60;;;;;;4902096;29;9500;-70
2022/03/03 07:33:33;;;;;;;;;65.25;52.75;6.50;43.90;;;;;;4918976;29;8775;-67
2022/03/03 07:36:02;;;;;;;;;67.25;54.75;6.10;44.90;;;;;;4918556;29;9580;-68
2022/03/03 07:38:35;;;;;;;;;68.75;55.00;5.80;45.20;;;;;;4918716;29;8786;-67
2022/03/03 07:41:03;;;;;;;;;60.75;51.50;5.90;44.90;;;;;;4918932;29;8823;-68
2022/03/03 07:43:29;;;;;;;;;66.75;53.75;6.00;46.20;;;;;;4918539;29;8788;-67
2022/03/03 07:45:55;;;;;;;;;67.00;53.50;5.90;45.50;;;;;;4917928;29;8812;-66
2022/03/03 07:48:25;;;;;;;;;65.50;50.50;6.10;45.80;;;;;;4918365;29;8790;-66
2022/03/03 07:50:52;;;;;;;;;58.00;47.50;6.20;44.80;;;;;;4918254;29;8886;-66
2022/03/03 07:53:18;;;;;;;;;62.00;52.75;6.20;43.90;;;;;;4918298;29;8779;-68
2022/03/03 07:55:45;;;;;;;;;61.00;49.50;6.30;43.40;;;;;;4932367;29;8819;-67
2022/03/03 07:58:22;;;;;;;;;63.00;50.00;6.20;43.60;;;;;;4937060;29;8792;-66
2022/03/03 08:00:50;;;;;;;;;59.00;48.00;6.50;43.20;;;;;;4937324;29;8769;-66
2022/03/03 08:03:19;;;;;;;;;41.00;37.50;6.40;42.10;;;;;;4937272;29;8785;-65
2022/03/03 08:05:48;;;;;;;;;58.75;48.50;6.20;43.00;;;;;;4936543;29;8919;-63
2022/03/03 08:08:20;;;;;;;;;60.75;49.75;6.20;43.30;;;;;;4937079;29;8829;-65
2022/03/03 08:10:46;;;;;;;;;62.75;51.00;6.30;43.60;;;;;;4937309;29;8796;-66
2022/03/03 08:13:14;;;;;;;;;55.00;43.50;6.30;43.60;;;;;;4937367;29;8758;-68
2022/03/03 08:15:44;;;;;;;;;63.25;51.75;6.30;44.70;;;;;;4937333;29;8907;-67
2022/03/03 08:18:11;;;;;;;;;59.00;46.50;6.40;44.50;;;;;;4937219;29;8901;-66
2022/03/03 08:20:38;;;;;;;;;66.00;52.00;6.30;44.00;;;;;;4936121;29;8788;-67
2022/03/03 08:23:06;;;;;;;;;71.25;54.00;6.60;44.00;;;;;;4937225;29;9436;-66
2022/03/03 08:25:34;;;;;;;;;69.00;55.75;6.50;43.80;;;;;;4936976;29;8789;-67
2022/03/03 08:28:02;;;;;;;;;61.25;50.75;6.70;42.90;;;;;;4937290;29;8789;-67
2022/03/03 08:30:29;;;;;;;;;63.50;50.00;6.60;42.60;;;;;;4937002;29;8777;-67
2022/03/03 08:33:18;;;;;;;;;57.25;48.25;6.30;42.80;;;;;;4937078;29;8867;-67
2022/03/03 08:35:54;;;;;;;;;56.50;45.50;6.20;43.10;;;;;;4936713;29;8769;-66
2022/03/03 08:38:45;;;;;;;;;62.75;49.75;6.40;43.10;;;;;;4936983;29;8796;-68
2022/03/03 08:41:15;;;;;;;;;60.75;51.00;6.20;43.30;;;;;;4937213;29;8795;-67
2022/03/03 08:43:43;;;;;;;;;59.25;48.75;6.70;43.00;;;;;;4936808;29;8811;-67
2022/03/03 08:46:12;;;;;;;;;57.50;48.50;6.40;41.70;;;;;;4936773;29;8813;-67
2022/03/03 08:48:41;;;;;;;;;57.50;47.75;6.40;41.60;;;;;;4936980;29;8904;-67
2022/03/03 08:51:07;;;;;;;;;63.00;51.25;6.20;42.00;;;;;;4936263;29;8800;-66
2022/03/03 08:53:33;;;;;;;;;64.50;52.25;6.70;41.60;;;;;;4936789;29;8863;-65
2022/03/03 08:56:00;;;;;;;;;65.50;54.00;6.80;41.50;;;;;;4936634;29;8789;-65
2022/03/03 08:58:26;;;;;;;;;59.75;50.75;6.80;40.90;;;;;;4936631;29;8803;-65
2022/03/03 09:00:53;;;;;;;;;64.00;51.50;6.90;40.10;;;;;;4937260;29;8785;-64
2022/03/03 09:03:21;;;;;;;;;69.25;54.75;6.60;39.70;;;;;;4936910;29;8777;-64
2022/03/03 09:05:48;;;;;;;;;60.25;49.25;6.90;42.00;;;;;;4936198;29;8782;-66
2022/03/03 09:08:14;;;;;;;;;60.25;46.50;7.30;41.60;;;;;;4936610;29;8825;-66
2022/03/03 09:10:40;;;;;;;;;65.75;54.00;7.50;40.30;;;;;;4936611;29;8887;-66
2022/03/03 09:13:06;;;;;;;;;59.25;49.50;7.50;40.60;;;;;;4936896;29;8808;-66
2022/03/03 09:15:33;;;;;;;;;58.25;47.75;7.30;38.90;;;;;;4936970;29;8837;-65
2022/03/03 09:18:00;;;;;;;;;59.25;50.75;7.10;39.30;;;;;;4936835;29;8785;-65
2022/03/03 09:20:27;;;;;;;;;61.25;49.25;7.10;38.70;;;;;;4935848;29;8781;-67
2022/03/03 09:22:53;;;;;;;;;48.50;44.00;7.00;38.50;;;;;;4936806;29;8765;-71
2022/03/03 09:25:19;;;;;;;;;59.50;49.50;7.20;38.80;;;;;;4936135;29;8785;-65
2022/03/03 09:27:46;;;;;;;;;63.25;51.25;7.40;39.40;;;;;;4936195;29;8923;-70
2022/03/03 09:30:13;;;;;;;;;59.75;47.75;7.70;38.30;;;;;;4936643;29;8773;-66
2022/03/03 09:32:40;;;;;;;;;56.00;44.00;7.60;37.60;;;;;;4939666;29;8785;-66
2022/03/03 09:35:07;;;;;;;;;41.50;38.00;7.60;38.00;;;;;;4939285;29;8785;-67
2022/03/03 09:37:32;;;;;;;;;54.50;44.50;7.20;37.70;;;;;;4940059;29;8824;-68
2022/03/03 09:39:58;;;;;;;;;62.00;50.00;7.30;38.30;;;;;;4939818;29;9610;-66
2022/03/03 09:42:31;;;;;;;;;54.50;45.00;7.70;38.10;;;;;;4939764;29;8801;-65
2022/03/03 09:44:58;;;;;;;;;52.50;45.25;8.10;36.40;;;;;;4939973;29;9484;-65
2022/03/03 09:47:24;;;;;;;;;46.00;39.25;7.80;36.30;;;;;;4939442;29;8887;-64
2022/03/03 09:49:49;;;;;;;;;44.50;38.25;7.70;36.30;;;;;;4939932;29;9455;-65
2022/03/03 09:52:18;;;;;;;;;47.00;41.25;7.90;36.40;;;;;;4939416;29;8852;-66
2022/03/03 09:54:49;;;;;;;;;53.00;41.25;7.80;36.80;;;;;;4939478;29;8789;-65
2022/03/03 09:57:15;;;;;;;;;55.25;44.75;7.90;36.50;;;;;;4939333;29;8872;-64
2022/03/03 09:59:42;;;;;;;;;34.00;33.25;8.10;36.00;;;;;;4939714;29;8792;-64
2022/03/03 10:02:08;;;;;;;;;55.50;45.25;8.20;36.10;;;;;;4939270;29;8769;-64
2022/03/03 10:04:34;;;;;;;;;46.50;38.75;8.40;35.90;;;;;;4939617;29;8777;-70
2022/03/03 10:07:08;;;;;;;;;57.25;47.00;8.40;35.10;;;;;;4939403;29;8828;-64
2022/03/03 10:09:59;;;;;;;;;63.00;50.25;8.20;36.50;;;;;;4937550;29;8797;-64
2022/03/03 10:12:27;;;;;;;;;51.50;42.50;8.20;37.60;;;;;;4939342;29;8879;-65
2022/03/03 10:14:58;;;;;;;;;55.25;46.50;8.40;35.20;;;;;;4939350;29;8816;-66
2022/03/03 10:17:35;;;;;;;;;48.00;41.75;8.30;35.40;;;;;;4939166;29;8809;-65
2022/03/03 10:20:03;;;;;;;;;51.25;43.50;8.00;35.30;;;;;;4939193;29;8769;-65
2022/03/03 10:22:44;;;;;;;;;49.75;42.00;8.30;35.90;;;;;;4939107;29;8867;-65
2022/03/03 10:25:12;;;;;;;;;48.00;40.25;8.50;34.70;;;;;;4939039;29;8800;-66
2022/03/03 10:27:38;;;;;;;;;52.75;42.75;8.70;34.70;;;;;;4938948;29;8801;-65
2022/03/03 10:30:06;;;;;;;;;52.00;41.25;9.10;34.90;;;;;;4938893;29;8789;-67
2022/03/03 10:32:35;;;;;;;;;48.25;41.75;8.90;34.50;;;;;;4939119;29;8789;-66
2022/03/03 10:35:15;;;;;;;;;50.75;41.25;9.40;34.40;;;;;;4938901;29;8788;-66
2022/03/03 10:37:47;;;;;;;;;48.75;41.50;10.40;32.80;;;;;;4938930;29;8785;-66
2022/03/03 10:40:15;;;;;;;;;55.50;42.75;10.20;31.80;;;;;;4938809;29;8876;-65
2022/03/03 10:42:48;;;;;;;;;48.50;39.25;10.60;31.70;;;;;;4937973;29;8796;-66
2022/03/03 10:45:17;;;;;;;;;47.50;40.75;10.90;30.30;;;;;;4939295;29;8937;-65
2022/03/03 10:48:06;;;;;;;;;45.75;39.75;11.00;29.60;;;;;;4938630;29;8813;-65
2022/03/03 10:50:48;;;;;;;;;49.00;42.25;11.40;29.50;;;;;;4938667;29;8792;-66
2022/03/03 10:53:18;;;;;;;;;46.00;40.00;11.80;28.80;;;;;;4938513;29;8757;-66
2022/03/03 10:56:04;;;;;;;;;48.50;41.00;11.70;29.20;;;;;;4938781;29;8781;-66
2022/03/03 10:58:48;;;;;;;;;48.00;40.00;12.00;28.60;;;;;;4938221;29;8808;-66
2022/03/03 11:01:16;;;;;;;;;53.00;44.25;12.10;29.20;;;;;;4938708;29;9435;-66
2022/03/03 11:03:49;;;;;;;;;45.00;36.00;12.40;28.50;;;;;;4921544;29;8816;-67
2022/03/03 11:06:16;;;;;;;;;50.25;41.75;12.70;27.90;;;;;;4938317;29;8947;-67
2022/03/03 11:08:42;;;;;;;;;48.00;39.50;13.40;27.70;;;;;;4920091;29;9493;-67
2022/03/03 11:11:08;;;;;;;;;49.75;41.50;17.50;25.10;;;;;;4917999;29;8827;-67
2022/03/03 11:13:35;;;;;;;;;52.50;41.50;20.10;21.70;;;;;;4918104;29;9540;-66
2022/03/03 11:16:02;;;;;;;;;47.33;39.33;21.40;19.40;;;;;;4918415;29;8799;-68
2022/03/03 11:18:29;;;;;;;;;46.33;39.33;21.70;18.90;;;;;;4919212;29;8783;-71
2022/03/03 11:20:56;;;;;;;;;51.67;42.33;21.50;18.20;;;;;;4919168;29;8807;-72
2022/03/03 11:23:22;;;;;;;;;44.33;38.00;21.80;19.30;;;;;;4919125;29;8846;-67
2022/03/03 11:25:50;;;;;;;;;39.33;36.00;23.70;18.20;;;;;;4918747;29;8910;-67
2022/03/03 11:28:18;;;;;;;;;49.00;41.00;24.10;16.90;;;;;;4919168;29;8854;-72
2022/03/03 11:30:46;;;;;;;;;52.33;44.67;24.50;17.20;;;;;;4918869;29;8921;-70
2022/03/03 11:33:27;;;;;;;;;45.00;39.00;25.50;17.10;;;;;;4919098;29;8795;-70
2022/03/03 11:36:04;;;;;;;;;46.33;39.00;25.40;16.10;;;;;;4918814;29;9510;-67
2022/03/03 11:38:50;;;;;;;;;40.67;36.00;24.20;16.80;;;;;;4918687;29;8910;-66
2022/03/03 11:41:16;;;;;;;;;41.33;36.00;25.40;16.30;;;;;;4918907;29;9504;-67
2022/03/03 11:43:57;;;;;;;;;41.00;36.33;27.40;15.20;;;;;;4918438;29;8795;-67
2022/03/03 11:46:45;;;;;;;;;37.33;34.00;28.70;14.80;;;;;;4918570;29;8886;-67
2022/03/03 11:49:15;;;;;;;;;32.33;31.33;27.70;15.10;;;;;;4918557;29;8898;-67
2022/03/03 11:51:42;;;;;;;;;42.67;37.00;25.50;14.40;;;;;;4918779;29;8882;-67
2022/03/03 11:54:12;;;;;;;;;43.00;37.00;26.90;14.70;;;;;;4917198;29;8818;-68
2022/03/03 11:57:02;;;;;;;;;38.00;35.00;28.20;14.10;;;;;;4917085;29;8800;-67
2022/03/03 11:59:48;;;;;;;;;38.67;35.33;26.40;13.30;;;;;;4914424;29;8778;-67
2022/03/03 12:02:19;;;;;;;;;28.67;28.67;27.30;14.40;;;;;;4915613;29;8902;-67
2022/03/03 12:04:46;;;;;;;;;36.33;33.33;26.80;13.60;;;;;;4914729;29;8799;-67
2022/03/03 12:07:30;;;;;;;;;35.67;33.00;25.80;13.90;;;;;;4916980;29;8821;-67
2022/03/03 12:09:56;;;;;;;;;39.67;35.67;24.00;15.80;;;;;;4915992;29;8854;-67
2022/03/03 12:12:28;;;;;;;;;37.00;34.00;26.70;15.60;;;;;;4914407;29;8837;-67
2022/03/03 12:14:58;;;;;;;;;38.33;35.00;25.30;15.00;;;;;;4917122;29;8814;-67
2022/03/03 12:17:45;;;;;;;;;42.33;37.33;25.80;15.40;;;;;;4915822;29;8805;-67
2022/03/03 12:20:38;;;;;;;;;42.67;36.00;26.90;14.70;;;;;;4915687;29;8768;-67
2022/03/03 12:23:11;;;;;;;;;38.33;35.00;28.60;14.70;;;;;;4912981;29;8816;-67
2022/03/03 12:25:58;;;;;;;;;40.33;35.67;26.30;14.30;;;;;;4916842;29;8764;-66
2022/03/03 12:28:45;;;;;;;;;46.33;37.67;27.20;15.00;;;;;;4914852;29;8783;-67
2022/03/03 12:31:29;;;;;;;;;40.33;36.00;29.00;14.00;;;;;;4914945;29;8793;-66
2022/03/03 12:34:08;;;;;;;;;37.33;33.67;30.60;13.70;;;;;;4915822;29;8821;-67
2022/03/03 12:36:37;;;;;;;;;31.33;30.00;28.20;13.90;;;;;;4915448;29;8891;-66
2022/03/03 12:39:07;;;;;;;;;34.33;32.33;24.60;14.30;;;;;;4915320;29;8884;-66
2022/03/03 12:41:34;;;;;;;;;34.33;32.33;24.50;15.20;;;;;;4916900;29;8797;-67
2022/03/03 12:44:07;;;;;;;;;38.00;34.67;25.60;15.30;;;;;;4916775;29;9628;-67
2022/03/03 12:46:37;;;;;;;;;46.33;40.00;29.90;14.50;;;;;;4915754;29;8839;-67
2022/03/03 12:49:08;;;;;;;;;39.67;35.33;31.70;13.30;;;;;;4901634;29;8909;-67
2022/03/03 12:51:40;;;;;;;;;28.67;28.67;30.40;12.70;;;;;;4893080;29;8811;-67
2022/03/03 12:54:06;;;;;;;;;33.00;32.00;30.60;12.50;;;;;;4914745;29;9423;-67